createdAt,value
2017-12-11T00:00:20.988Z,4.7
2017-12-11T00:01:28.177Z,4.7
2017-12-11T00:02:35.370Z,4.7
2017-12-11T00:03:42.279Z,4.7
2017-12-11T00:04:49.468Z,4.8
2017-12-11T00:05:56.381Z,4.7
2017-12-11T00:07:03.570Z,4.7
2017-12-11T00:08:10.757Z,4.8
2017-12-11T00:09:17.664Z,4.7
2017-12-11T00:10:24.851Z,4.8
2017-12-11T00:11:32.039Z,4.7
2017-12-11T00:12:39.227Z,4.7
2017-12-11T00:13:46.135Z,4.7
2017-12-11T00:14:53.322Z,4.6
2017-12-11T00:16:00.234Z,4.6
2017-12-11T00:17:07.423Z,4.5
2017-12-11T00:18:14.346Z,4.5
2017-12-11T00:19:21.249Z,4.5
2017-12-11T00:20:28.433Z,4.5
2017-12-11T00:21:35.620Z,4.4
2017-12-11T00:22:42.810Z,4.4
2017-12-11T00:23:49.995Z,4.4
2017-12-11T00:24:56.904Z,4.3
2017-12-11T00:26:04.091Z,4.3
2017-12-11T00:27:11.277Z,4.3
2017-12-11T00:28:18.467Z,4.3
2017-12-11T00:29:25.392Z,4.3
2017-12-11T00:30:32.308Z,4.3
2017-12-11T00:31:39.220Z,4.3
2017-12-11T00:32:46.143Z,4.3
2017-12-11T00:33:53.335Z,4.3
2017-12-11T00:35:00.524Z,4.3
2017-12-11T00:36:07.712Z,4.3
2017-12-11T00:37:14.626Z,4.3
2017-12-11T00:38:21.852Z,4.3
2017-12-11T00:39:29.040Z,4.2
2017-12-11T00:40:35.958Z,4.2
2017-12-11T00:41:42.873Z,4.3
2017-12-11T00:42:49.788Z,4.3
2017-12-11T00:44:11.627Z,4.3
2017-12-11T00:45:18.817Z,4.4
2017-12-11T00:46:25.725Z,4.4
2017-12-11T00:47:32.909Z,4.3
2017-12-11T00:48:39.825Z,4.3
2017-12-11T00:49:46.742Z,4.2
2017-12-11T00:50:53.380Z,4.2
2017-12-11T00:52:00.567Z,4.2
2017-12-11T00:53:07.776Z,4.2
2017-12-11T00:54:14.898Z,4.2
2017-12-11T00:55:21.806Z,4.1
2017-12-11T00:56:28.993Z,4.1
2017-12-11T00:57:36.179Z,4.1
2017-12-11T00:58:43.369Z,4.1
2017-12-11T00:59:50.282Z,4.1
2017-12-11T01:00:57.477Z,4
2017-12-11T01:02:04.664Z,4
2017-12-11T01:03:11.852Z,4
2017-12-11T01:04:19.042Z,4
2017-12-11T01:05:26.224Z,4
2017-12-11T01:06:33.410Z,3.9
2017-12-11T01:07:40.596Z,3.9
2017-12-11T01:08:47.508Z,3.9
2017-12-11T01:09:54.699Z,3.9
2017-12-11T01:11:01.885Z,3.9
2017-12-11T01:12:09.074Z,3.9
2017-12-11T01:13:16.263Z,3.9
2017-12-11T01:14:23.459Z,3.9
2017-12-11T01:15:30.651Z,3.9
2017-12-11T01:16:37.836Z,3.9
2017-12-11T01:17:44.743Z,3.9
2017-12-11T01:18:51.652Z,4
2017-12-11T01:19:58.568Z,3.9
2017-12-11T01:21:05.482Z,3.9
2017-12-11T01:22:12.394Z,3.9
2017-12-11T01:23:19.030Z,3.9
2017-12-11T01:24:26.196Z,3.9
2017-12-11T01:25:33.110Z,3.9
2017-12-11T01:26:40.018Z,3.8
2017-12-11T01:27:46.924Z,3.8
2017-12-11T01:28:53.838Z,3.8
2017-12-11T01:30:00.744Z,3.8
2017-12-11T01:31:07.934Z,3.7
2017-12-11T01:32:14.843Z,3.7
2017-12-11T01:33:22.035Z,3.6
2017-12-11T01:34:28.943Z,3.6
2017-12-11T01:35:35.857Z,3.6
2017-12-11T01:36:42.771Z,3.6
2017-12-11T01:37:49.680Z,3.5
2017-12-11T01:38:56.589Z,3.5
2017-12-11T01:40:03.502Z,3.6
2017-12-11T01:41:10.689Z,3.5
2017-12-11T01:42:17.598Z,3.5
2017-12-11T01:43:24.786Z,3.6
2017-12-11T01:44:32.187Z,3.6
2017-12-11T01:45:39.374Z,3.5
2017-12-11T01:46:46.566Z,3.5
2017-12-11T01:47:53.755Z,3.5
2017-12-11T01:49:00.942Z,3.5
2017-12-11T01:50:07.855Z,3.5
2017-12-11T01:51:14.764Z,3.5
2017-12-11T01:52:21.947Z,3.4
2017-12-11T01:53:29.138Z,3.4
2017-12-11T01:54:36.055Z,3.4
2017-12-11T01:55:43.241Z,3.4
2017-12-11T01:56:50.429Z,3.4
2017-12-11T01:57:57.614Z,3.3
2017-12-11T01:59:04.535Z,3.3
2017-12-11T02:00:11.729Z,3.3
2017-12-11T02:01:18.642Z,3.3
2017-12-11T02:02:25.847Z,3.3
2017-12-11T02:03:33.052Z,3.3
2017-12-11T02:04:40.259Z,3.3
2017-12-11T02:05:47.455Z,3.3
2017-12-11T02:06:54.646Z,3.3
2017-12-11T02:08:01.840Z,3.3
2017-12-11T02:09:09.031Z,3.3
2017-12-11T02:10:16.214Z,3.2
2017-12-11T02:11:23.404Z,3.2
2017-12-11T02:12:30.316Z,3.1
2017-12-11T02:13:37.226Z,3.1
2017-12-11T02:14:44.195Z,3.1
2017-12-11T02:15:51.383Z,3.1
2017-12-11T02:16:58.571Z,3
2017-12-11T02:18:05.486Z,3
2017-12-11T02:19:12.675Z,3
2017-12-11T02:20:19.861Z,2.9
2017-12-11T02:21:27.051Z,2.8
2017-12-11T02:22:34.242Z,2.8
2017-12-11T02:23:41.426Z,2.8
2017-12-11T02:24:48.614Z,2.7
2017-12-11T02:25:55.802Z,2.7
2017-12-11T02:27:02.987Z,2.7
2017-12-11T02:28:09.901Z,2.7
2017-12-11T02:29:17.098Z,2.7
2017-12-11T02:30:24.285Z,2.7
2017-12-11T02:31:31.532Z,2.7
2017-12-11T02:32:38.710Z,2.7
2017-12-11T02:33:45.620Z,2.7
2017-12-11T02:34:52.907Z,2.6
2017-12-11T02:36:00.095Z,2.6
2017-12-11T02:37:07.278Z,2.6
2017-12-11T02:38:14.468Z,2.6
2017-12-11T02:39:21.655Z,2.6
2017-12-11T02:40:28.841Z,2.6
2017-12-11T02:41:36.027Z,2.7
2017-12-11T02:42:42.941Z,2.7
2017-12-11T02:43:49.856Z,2.8
2017-12-11T02:44:56.765Z,2.8
2017-12-11T02:46:03.677Z,2.7
2017-12-11T02:47:10.596Z,2.7
2017-12-11T02:48:17.783Z,2.6
2017-12-11T02:49:24.975Z,2.6
2017-12-11T02:50:32.165Z,2.5
2017-12-11T02:51:39.079Z,2.5
2017-12-11T02:52:46.264Z,2.5
2017-12-11T02:53:53.178Z,2.5
2017-12-11T02:55:00.097Z,2.5
2017-12-11T02:56:07.278Z,2.5
2017-12-11T02:57:14.463Z,2.5
2017-12-11T02:58:21.374Z,2.5
2017-12-11T02:59:28.565Z,2.5
2017-12-11T03:00:35.752Z,2.5
2017-12-11T03:01:42.391Z,2.6
2017-12-11T03:02:49.588Z,2.6
2017-12-11T03:03:56.776Z,2.6
2017-12-11T03:05:03.966Z,2.6
2017-12-11T03:06:11.153Z,2.6
2017-12-11T03:07:18.066Z,2.6
2017-12-11T03:08:25.254Z,2.7
2017-12-11T03:09:32.442Z,2.7
2017-12-11T03:10:39.627Z,2.7
2017-12-11T03:11:46.818Z,2.7
2017-12-11T03:12:53.725Z,2.7
2017-12-11T03:14:00.647Z,2.6
2017-12-11T03:15:07.559Z,2.6
2017-12-11T03:16:14.478Z,2.6
2017-12-11T03:17:21.670Z,2.6
2017-12-11T03:18:28.584Z,2.5
2017-12-11T03:19:35.493Z,2.5
2017-12-11T03:20:42.460Z,2.4
2017-12-11T03:21:49.650Z,2.5
2017-12-11T03:22:56.836Z,2.5
2017-12-11T03:24:03.796Z,2.5
2017-12-11T03:25:10.980Z,2.4
2017-12-11T03:26:18.172Z,2.4
2017-12-11T03:27:25.361Z,2.4
2017-12-11T03:28:32.548Z,2.3
2017-12-11T03:29:39.465Z,2.3
2017-12-11T03:30:46.378Z,2.3
2017-12-11T03:31:53.564Z,2.3
2017-12-11T03:33:00.755Z,2.3
2017-12-11T03:34:07.666Z,2.3
2017-12-11T03:35:14.574Z,2.3
2017-12-11T03:36:21.211Z,2.3
2017-12-11T03:37:28.122Z,2.2
2017-12-11T03:38:35.325Z,2.2
2017-12-11T03:39:42.514Z,2.3
2017-12-11T03:40:49.428Z,2.2
2017-12-11T03:41:56.613Z,2.2
2017-12-11T03:43:03.798Z,2.2
2017-12-11T03:44:11.051Z,2.2
2017-12-11T03:45:17.898Z,2.2
2017-12-11T03:46:25.084Z,2.1
2017-12-11T03:47:32.271Z,2.1
2017-12-11T03:48:39.455Z,2.1
2017-12-11T03:49:46.101Z,2
2017-12-11T03:50:53.287Z,2
2017-12-11T03:52:00.475Z,2
2017-12-11T03:53:07.666Z,2
2017-12-11T03:54:14.850Z,2
2017-12-11T03:55:22.041Z,2
2017-12-11T03:56:28.958Z,2
2017-12-11T03:57:36.144Z,2
2017-12-11T03:58:43.335Z,2.1
2017-12-11T03:59:50.253Z,2
2017-12-11T04:00:56.882Z,2.1
2017-12-11T04:02:04.133Z,2
2017-12-11T04:03:11.317Z,2
2017-12-11T04:04:18.505Z,2
2017-12-11T04:05:25.141Z,2
2017-12-11T04:06:32.052Z,2
2017-12-11T04:07:38.961Z,2
2017-12-11T04:08:46.145Z,2
2017-12-11T04:09:53.355Z,2
2017-12-11T04:11:00.270Z,2
2017-12-11T04:12:07.459Z,2
2017-12-11T04:13:14.467Z,2
2017-12-11T04:14:21.655Z,2
2017-12-11T04:15:28.562Z,2
2017-12-11T04:16:35.752Z,2
2017-12-11T04:17:42.664Z,2
2017-12-11T04:18:49.850Z,2
2017-12-11T04:19:57.033Z,2
2017-12-11T04:21:04.225Z,2
2017-12-11T04:22:11.412Z,2
2017-12-11T04:23:18.605Z,2
2017-12-11T04:24:25.516Z,2
2017-12-11T04:25:32.430Z,2
2017-12-11T04:26:39.620Z,2
2017-12-11T04:27:46.526Z,1.9
2017-12-11T04:28:53.712Z,2
2017-12-11T04:30:00.631Z,2
2017-12-11T04:31:07.545Z,2
2017-12-11T04:32:14.738Z,2
2017-12-11T04:33:21.639Z,2
2017-12-11T04:34:28.553Z,2
2017-12-11T04:35:35.469Z,2.1
2017-12-11T04:36:42.661Z,2.1
2017-12-11T04:37:49.610Z,2.3
2017-12-11T04:38:56.796Z,2.4
2017-12-11T04:40:03.705Z,2.5
2017-12-11T04:41:10.890Z,2.5
2017-12-11T04:42:18.076Z,2.5
2017-12-11T04:43:24.987Z,2.6
2017-12-11T04:44:31.894Z,2.7
2017-12-11T04:45:39.081Z,2.8
2017-12-11T04:46:46.296Z,3
2017-12-11T04:47:53.213Z,3.2
2017-12-11T04:49:00.400Z,3.2
2017-12-11T04:50:07.031Z,3.2
2017-12-11T04:51:14.202Z,3.2
2017-12-11T04:52:21.388Z,3.2
2017-12-11T04:53:28.579Z,3.1
2017-12-11T04:54:35.494Z,3.1
2017-12-11T04:55:42.681Z,3.1
2017-12-11T04:56:49.591Z,3.1
2017-12-11T04:57:56.784Z,3
2017-12-11T04:59:03.975Z,3
2017-12-11T05:00:10.883Z,3
2017-12-11T05:01:17.796Z,3
2017-12-11T05:02:24.432Z,3
2017-12-11T05:03:31.617Z,3.1
2017-12-11T05:04:38.533Z,3.1
2017-12-11T05:05:45.483Z,3.1
2017-12-11T05:06:52.650Z,3.2
2017-12-11T05:07:59.840Z,3.2
2017-12-11T05:09:07.030Z,3.2
2017-12-11T05:10:13.660Z,3.2
2017-12-11T05:11:20.849Z,3.1
2017-12-11T05:12:28.036Z,3.2
2017-12-11T05:13:35.196Z,3.1
2017-12-11T05:14:42.130Z,3.1
2017-12-11T05:15:49.040Z,3.1
2017-12-11T05:16:55.946Z,3
2017-12-11T05:18:03.137Z,3
2017-12-11T05:19:10.331Z,3
2017-12-11T05:20:17.518Z,2.9
2017-12-11T05:21:24.700Z,2.9
2017-12-11T05:22:31.891Z,3
2017-12-11T05:23:38.806Z,3
2017-12-11T05:24:45.967Z,3.1
2017-12-11T05:25:52.598Z,3.1
2017-12-11T05:26:59.231Z,3.1
2017-12-11T05:28:06.457Z,3
2017-12-11T05:29:13.364Z,3
2017-12-11T05:30:20.552Z,3.1
2017-12-11T05:31:27.462Z,3.1
2017-12-11T05:32:34.655Z,3.1
2017-12-11T05:33:41.577Z,3.1
2017-12-11T05:34:48.764Z,3.1
2017-12-11T05:35:55.952Z,3
2017-12-11T05:37:03.138Z,2.9
2017-12-11T05:38:10.055Z,2.9
2017-12-11T05:39:17.244Z,2.9
2017-12-11T05:40:24.438Z,3
2017-12-11T05:41:31.349Z,3
2017-12-11T05:42:38.537Z,3.1
2017-12-11T05:43:45.448Z,3.1
2017-12-11T05:44:52.638Z,3.1
2017-12-11T05:45:59.813Z,3.1
2017-12-11T05:47:06.455Z,3.1
2017-12-11T05:48:13.642Z,3.1
2017-12-11T05:49:20.830Z,3.1
2017-12-11T05:50:27.466Z,3
2017-12-11T05:51:34.387Z,3
2017-12-11T05:52:41.572Z,3
2017-12-11T05:53:48.758Z,3
2017-12-11T05:54:55.663Z,3
2017-12-11T05:56:02.855Z,2.9
2017-12-11T05:57:10.038Z,3
2017-12-11T05:58:16.951Z,3
2017-12-11T05:59:23.867Z,3
2017-12-11T06:00:30.783Z,3
2017-12-11T06:01:38.006Z,3.1
2017-12-11T06:02:44.886Z,3.1
2017-12-11T06:03:51.793Z,3.1
2017-12-11T06:04:58.705Z,3.1
2017-12-11T06:06:05.939Z,3.1
2017-12-11T06:07:13.213Z,3.1
2017-12-11T06:08:19.848Z,3.1
2017-12-11T06:09:27.033Z,3.2
2017-12-11T06:10:34.259Z,3.2
2017-12-11T06:11:41.168Z,3.2
2017-12-11T06:12:48.358Z,3.2
2017-12-11T06:13:55.545Z,3.3
2017-12-11T06:15:02.732Z,3.3
2017-12-11T06:16:09.915Z,3.3
2017-12-11T06:17:16.546Z,3.3
2017-12-11T06:18:23.739Z,3.3
2017-12-11T06:19:30.926Z,3.3
2017-12-11T06:20:38.205Z,3.3
2017-12-11T06:21:44.835Z,3.3
2017-12-11T06:22:52.020Z,3.3
2017-12-11T06:23:58.928Z,3.3
2017-12-11T06:25:06.114Z,3.2
2017-12-11T06:26:13.025Z,3.1
2017-12-11T06:27:20.211Z,3.2
2017-12-11T06:28:27.119Z,3.2
2017-12-11T06:29:34.031Z,3.3
2017-12-11T06:30:41.216Z,3.3
2017-12-11T06:31:48.133Z,3.3
2017-12-11T06:32:55.318Z,3.3
2017-12-11T06:34:02.513Z,3.4
2017-12-11T06:35:09.421Z,3.4
2017-12-11T06:36:16.334Z,3.4
2017-12-11T06:37:23.521Z,3.4
2017-12-11T06:38:30.713Z,3.5
2017-12-11T06:39:37.902Z,3.5
2017-12-11T06:40:45.088Z,3.5
2017-12-11T06:41:52.278Z,3.5
2017-12-11T06:42:59.519Z,3.6
2017-12-11T06:44:06.700Z,3.6
2017-12-11T06:45:13.889Z,3.5
2017-12-11T06:46:20.802Z,3.6
2017-12-11T06:47:27.995Z,3.6
2017-12-11T06:48:35.179Z,3.6
2017-12-11T06:49:41.821Z,3.6
2017-12-11T06:50:48.732Z,3.6
2017-12-11T06:51:55.925Z,3.6
2017-12-11T06:53:03.117Z,3.5
2017-12-11T06:54:10.026Z,3.5
2017-12-11T06:55:17.210Z,3.5
2017-12-11T06:56:24.399Z,3.5
2017-12-11T06:57:31.590Z,3.5
2017-12-11T06:58:38.790Z,3.5
2017-12-11T06:59:45.973Z,3.5
2017-12-11T07:00:52.334Z,3.5
2017-12-11T07:01:59.237Z,3.5
2017-12-11T07:03:06.525Z,3.6
2017-12-11T07:04:13.714Z,3.6
2017-12-11T07:05:20.634Z,3.6
2017-12-11T07:06:27.822Z,3.6
2017-12-11T07:07:35.012Z,3.6
2017-12-11T07:08:42.199Z,3.7
2017-12-11T07:09:49.391Z,3.7
2017-12-11T07:10:56.301Z,3.7
2017-12-11T07:12:03.494Z,3.7
2017-12-11T07:13:10.408Z,3.7
2017-12-11T07:14:17.351Z,3.7
2017-12-11T07:15:24.541Z,3.7
2017-12-11T07:16:31.448Z,3.8
2017-12-11T07:17:38.634Z,3.7
2017-12-11T07:18:45.554Z,3.7
2017-12-11T07:19:52.739Z,3.7
2017-12-11T07:20:59.930Z,3.7
2017-12-11T07:22:06.842Z,3.7
2017-12-11T07:23:14.030Z,3.7
2017-12-11T07:24:20.666Z,3.6
2017-12-11T07:25:27.854Z,3.6
2017-12-11T07:26:34.765Z,3.7
2017-12-11T07:27:41.952Z,3.7
2017-12-11T07:28:49.138Z,3.6
2017-12-11T07:29:56.055Z,3.7
2017-12-11T07:31:03.491Z,3.7
2017-12-11T07:32:10.686Z,3.8
2017-12-11T07:33:17.935Z,3.8
2017-12-11T07:34:24.848Z,3.8
2017-12-11T07:35:32.036Z,3.8
2017-12-11T07:36:38.672Z,3.8
2017-12-11T07:37:45.313Z,3.7
2017-12-11T07:38:52.502Z,3.7
2017-12-11T07:39:59.686Z,3.7
2017-12-11T07:41:06.878Z,3.7
2017-12-11T07:42:14.062Z,3.7
2017-12-11T07:43:20.975Z,3.7
2017-12-11T07:44:27.903Z,3.7
2017-12-11T07:45:35.088Z,3.7
2017-12-11T07:46:41.997Z,3.6
2017-12-11T07:47:49.184Z,3.7
2017-12-11T07:48:56.101Z,3.7
2017-12-11T07:50:02.741Z,3.6
2017-12-11T07:51:09.986Z,3.6
2017-12-11T07:52:16.888Z,3.6
2017-12-11T07:53:23.813Z,3.6
2017-12-11T07:54:30.998Z,3.6
2017-12-11T07:55:37.913Z,3.6
2017-12-11T07:56:44.822Z,3.6
2017-12-11T07:57:51.740Z,3.7
2017-12-11T07:58:58.926Z,3.7
2017-12-11T08:00:05.834Z,3.7
2017-12-11T08:01:12.753Z,3.7
2017-12-11T08:02:19.945Z,3.7
2017-12-11T08:03:27.131Z,3.7
2017-12-11T08:04:34.321Z,3.6
2017-12-11T08:05:41.239Z,3.6
2017-12-11T08:06:48.437Z,3.7
2017-12-11T08:07:55.630Z,3.7
2017-12-11T08:09:02.829Z,3.7
2017-12-11T08:10:10.014Z,3.7
2017-12-11T08:11:17.204Z,3.7
2017-12-11T08:12:24.389Z,3.7
2017-12-11T08:13:31.309Z,3.7
2017-12-11T08:14:38.504Z,3.7
2017-12-11T08:15:45.695Z,3.7
2017-12-11T08:16:52.605Z,3.6
2017-12-11T08:17:59.516Z,3.6
2017-12-11T08:19:06.437Z,3.6
2017-12-11T08:20:13.627Z,3.6
2017-12-11T08:21:20.270Z,3.6
2017-12-11T08:22:27.457Z,3.6
2017-12-11T08:23:34.651Z,3.7
2017-12-11T08:24:41.832Z,3.7
2017-12-11T08:25:49.022Z,3.7
2017-12-11T08:26:56.212Z,3.7
2017-12-11T08:28:03.130Z,3.8
2017-12-11T08:29:10.318Z,3.8
2017-12-11T08:30:17.505Z,3.9
2017-12-11T08:31:24.699Z,3.9
2017-12-11T08:32:31.887Z,3.9
2017-12-11T08:33:38.799Z,3.9
2017-12-11T08:34:45.985Z,3.9
2017-12-11T08:35:53.173Z,3.9
2017-12-11T08:37:00.081Z,3.9
2017-12-11T08:38:07.272Z,3.9
2017-12-11T08:39:14.461Z,3.9
2017-12-11T08:40:21.091Z,3.9
2017-12-11T08:41:28.280Z,3.9
2017-12-11T08:42:35.201Z,3.9
2017-12-11T08:43:42.118Z,3.9
2017-12-11T08:44:49.032Z,3.9
2017-12-11T08:45:56.217Z,3.9
2017-12-11T08:47:03.408Z,4
2017-12-11T08:48:10.596Z,4
2017-12-11T08:49:17.509Z,4
2017-12-11T08:50:24.426Z,3.9
2017-12-11T08:51:31.611Z,3.9
2017-12-11T08:52:38.795Z,3.9
2017-12-11T08:53:45.982Z,4
2017-12-11T08:54:52.616Z,4
2017-12-11T08:55:59.831Z,4
2017-12-11T08:57:07.018Z,3.9
2017-12-11T08:58:14.455Z,3.9
2017-12-11T08:59:21.643Z,3.9
2017-12-11T09:00:28.834Z,3.9
2017-12-11T09:01:35.754Z,3.9
2017-12-11T09:02:42.941Z,3.9
2017-12-11T09:03:50.131Z,3.9
2017-12-11T09:04:57.042Z,3.9
2017-12-11T09:06:04.236Z,3.9
2017-12-11T09:07:10.870Z,3.9
2017-12-11T09:08:17.788Z,3.9
2017-12-11T09:09:25.075Z,3.9
2017-12-11T09:10:46.919Z,3.9
2017-12-11T09:11:53.830Z,3.9
2017-12-11T09:13:00.745Z,3.9
2017-12-11T09:14:07.934Z,3.9
2017-12-11T09:15:15.121Z,4
2017-12-11T09:16:22.314Z,3.9
2017-12-11T09:17:29.222Z,4
2017-12-11T09:18:36.426Z,4
2017-12-11T09:19:43.572Z,4
2017-12-11T09:20:50.740Z,4
2017-12-11T09:21:57.650Z,4
2017-12-11T09:23:04.839Z,3.9
2017-12-11T09:24:12.027Z,3.9
2017-12-11T09:25:19.213Z,4
2017-12-11T09:26:26.404Z,4
2017-12-11T09:27:33.592Z,4
2017-12-11T09:28:40.786Z,4
2017-12-11T09:29:47.975Z,4
2017-12-11T09:30:55.170Z,4
2017-12-11T09:32:02.360Z,4
2017-12-11T09:33:09.552Z,4
2017-12-11T09:34:16.739Z,4
2017-12-11T09:35:23.662Z,4
2017-12-11T09:36:30.575Z,4
2017-12-11T09:37:37.487Z,4.1
2017-12-11T09:38:44.674Z,4.1
2017-12-11T09:39:51.588Z,4
2017-12-11T09:40:58.774Z,4.1
2017-12-11T09:42:05.963Z,4.1
2017-12-11T09:43:13.146Z,4.1
2017-12-11T09:44:19.785Z,4
2017-12-11T09:45:26.935Z,4.1
2017-12-11T09:46:33.573Z,4.1
2017-12-11T09:47:40.770Z,4.1
2017-12-11T09:48:47.950Z,4.1
2017-12-11T09:49:55.140Z,4.1
2017-12-11T09:51:02.059Z,4.2
2017-12-11T09:52:09.252Z,4.2
2017-12-11T09:53:16.157Z,4.1
2017-12-11T09:54:23.070Z,4.1
2017-12-11T09:55:30.477Z,4.1
2017-12-11T09:56:37.667Z,4.1
2017-12-11T09:57:44.851Z,4.1
2017-12-11T09:58:52.039Z,4
2017-12-11T09:59:58.680Z,4
2017-12-11T10:01:05.869Z,4.1
2017-12-11T10:02:13.055Z,4.1
2017-12-11T10:03:19.971Z,4
2017-12-11T10:04:27.174Z,4
2017-12-11T10:05:34.360Z,4
2017-12-11T10:06:41.546Z,4
2017-12-11T10:07:48.558Z,3.9
2017-12-11T10:08:55.747Z,3.9
2017-12-11T10:10:02.937Z,3.9
2017-12-11T10:11:10.128Z,4
2017-12-11T10:12:17.311Z,4
2017-12-11T10:13:24.230Z,4
2017-12-11T10:14:31.420Z,4
2017-12-11T10:15:38.612Z,4
2017-12-11T10:16:45.795Z,4
2017-12-11T10:17:52.716Z,4
2017-12-11T10:18:59.633Z,4.1
2017-12-11T10:20:06.542Z,4.1
2017-12-11T10:21:13.728Z,4.1
2017-12-11T10:22:20.920Z,4.1
2017-12-11T10:23:27.831Z,4.1
2017-12-11T10:24:35.025Z,4.1
2017-12-11T10:25:42.215Z,4.1
2017-12-11T10:26:49.407Z,4.1
2017-12-11T10:27:56.324Z,4.1
2017-12-11T10:29:03.234Z,4.2
2017-12-11T10:30:10.423Z,4.3
2017-12-11T10:31:17.612Z,4.3
2017-12-11T10:32:24.804Z,4.3
2017-12-11T10:33:31.717Z,4.3
2017-12-11T10:34:38.905Z,4.3
2017-12-11T10:35:46.093Z,4.3
2017-12-11T10:36:53.009Z,4.3
2017-12-11T10:37:59.648Z,4.3
2017-12-11T10:39:06.552Z,4.3
2017-12-11T10:40:13.751Z,4.3
2017-12-11T10:41:20.662Z,4.3
2017-12-11T10:42:27.847Z,4.3
2017-12-11T10:43:34.767Z,4.3
2017-12-11T10:44:41.956Z,4.3
2017-12-11T10:45:49.146Z,4.4
2017-12-11T10:46:56.055Z,4.4
2017-12-11T10:48:02.968Z,4.4
2017-12-11T10:49:10.153Z,4.4
2017-12-11T10:50:16.521Z,4.4
2017-12-11T10:51:23.708Z,4.4
2017-12-11T10:52:30.625Z,4.4
2017-12-11T10:53:37.803Z,4.5
2017-12-11T10:54:44.721Z,4.5
2017-12-11T10:55:51.909Z,4.5
2017-12-11T10:56:59.097Z,4.5
2017-12-11T10:58:06.289Z,4.5
2017-12-11T10:59:13.211Z,4.5
2017-12-11T11:00:20.325Z,4.5
2017-12-11T11:01:27.516Z,4.6
2017-12-11T11:02:34.705Z,4.6
2017-12-11T11:03:41.900Z,4.6
2017-12-11T11:04:49.087Z,4.7
2017-12-11T11:05:55.732Z,4.7
2017-12-11T11:07:02.648Z,4.7
2017-12-11T11:08:09.848Z,4.7
2017-12-11T11:09:16.762Z,4.7
2017-12-11T11:10:23.948Z,4.6
2017-12-11T11:11:30.597Z,4.6
2017-12-11T11:12:37.229Z,4.6
2017-12-11T11:13:44.414Z,4.6
2017-12-11T11:15:06.256Z,4.7
2017-12-11T11:16:13.446Z,4.7
2017-12-11T11:17:20.632Z,4.7
2017-12-11T11:18:27.820Z,4.7
2017-12-11T11:19:35.011Z,4.7
2017-12-11T11:20:42.195Z,4.8
2017-12-11T11:21:49.384Z,4.8
2017-12-11T11:22:56.572Z,4.8
2017-12-11T11:24:03.762Z,4.8
2017-12-11T11:25:10.952Z,4.8
2017-12-11T11:26:18.150Z,4.8
2017-12-11T11:27:25.383Z,4.8
2017-12-11T11:28:32.654Z,4.8
2017-12-11T11:29:39.841Z,4.8
2017-12-11T11:30:47.029Z,4.8
2017-12-11T11:31:53.945Z,4.8
2017-12-11T11:33:00.855Z,4.9
2017-12-11T11:34:07.764Z,4.8
2017-12-11T11:35:14.951Z,4.9
2017-12-11T11:36:22.138Z,4.9
2017-12-11T11:37:29.333Z,4.9
2017-12-11T11:38:36.242Z,5
2017-12-11T11:39:43.166Z,5
2017-12-11T11:40:50.351Z,4.9
2017-12-11T11:41:57.543Z,4.9
2017-12-11T11:43:04.738Z,4.9
2017-12-11T11:44:11.928Z,4.9
2017-12-11T11:45:19.115Z,4.9
2017-12-11T11:46:26.030Z,4.9
2017-12-11T11:47:33.222Z,4.9
2017-12-11T11:48:40.413Z,4.9
2017-12-11T11:49:47.606Z,4.9
2017-12-11T11:50:54.791Z,4.8
2017-12-11T11:52:01.424Z,4.8
2017-12-11T11:53:08.074Z,4.8
2017-12-11T11:54:15.263Z,4.8
2017-12-11T11:55:22.172Z,4.8
2017-12-11T11:56:29.086Z,4.8
2017-12-11T11:57:35.996Z,4.9
2017-12-11T11:58:43.215Z,4.9
2017-12-11T11:59:50.404Z,4.9
2017-12-11T12:00:57.592Z,4.9
2017-12-11T12:02:04.779Z,4.9
2017-12-11T12:03:11.415Z,4.9
2017-12-11T12:04:18.627Z,4.9
2017-12-11T12:05:25.814Z,4.9
2017-12-11T12:06:33.006Z,4.9
2017-12-11T12:07:39.920Z,4.9
2017-12-11T12:08:47.116Z,4.8
2017-12-11T12:09:54.045Z,4.8
2017-12-11T12:11:01.512Z,4.8
2017-12-11T12:12:08.422Z,4.8
2017-12-11T12:13:15.608Z,4.8
2017-12-11T12:14:22.801Z,4.7
2017-12-11T12:15:29.720Z,4.8
2017-12-11T12:16:36.928Z,4.8
2017-12-11T12:17:44.046Z,4.8
2017-12-11T12:18:51.236Z,4.8
2017-12-11T12:19:58.155Z,4.8
2017-12-11T12:21:05.072Z,4.7
2017-12-11T12:22:12.269Z,4.7
2017-12-11T12:23:19.187Z,4.7
2017-12-11T12:24:26.105Z,4.7
2017-12-11T12:25:33.298Z,4.7
2017-12-11T12:26:40.484Z,4.7
2017-12-11T12:27:47.129Z,4.7
2017-12-11T12:28:54.047Z,4.7
2017-12-11T12:30:01.235Z,4.7
2017-12-11T12:31:08.467Z,4.7
2017-12-11T12:32:15.378Z,4.7
2017-12-11T12:33:22.575Z,4.7
2017-12-11T12:34:29.215Z,4.7
2017-12-11T12:35:36.404Z,4.7
2017-12-11T12:36:43.321Z,4.7
2017-12-11T12:37:50.230Z,4.7
2017-12-11T12:38:57.429Z,4.7
2017-12-11T12:40:04.061Z,4.7
2017-12-11T12:41:10.707Z,4.7
2017-12-11T12:42:17.902Z,4.7
2017-12-11T12:43:24.809Z,4.7
2017-12-11T12:44:31.717Z,4.7
2017-12-11T12:45:38.632Z,4.7
2017-12-11T12:46:45.541Z,4.7
2017-12-11T12:47:52.739Z,4.7
2017-12-11T12:48:59.380Z,4.7
2017-12-11T12:50:06.572Z,4.7
2017-12-11T12:51:13.763Z,4.7
2017-12-11T12:52:20.678Z,4.7
2017-12-11T12:53:27.868Z,4.7
2017-12-11T12:54:35.308Z,4.7
2017-12-11T12:55:42.494Z,4.7
2017-12-11T12:56:49.685Z,4.7
2017-12-11T12:57:56.919Z,4.7
2017-12-11T12:59:04.107Z,4.7
2017-12-11T13:00:11.019Z,4.7
2017-12-11T13:01:18.211Z,4.7
2017-12-11T13:02:25.400Z,4.8
2017-12-11T13:03:32.608Z,4.8
2017-12-11T13:04:39.794Z,4.9
2017-12-11T13:05:46.989Z,4.8
2017-12-11T13:06:54.178Z,4.9
2017-12-11T13:08:01.365Z,4.8
2017-12-11T13:09:08.556Z,4.8
2017-12-11T13:10:15.751Z,4.8
2017-12-11T13:11:22.937Z,4.8
2017-12-11T13:12:29.870Z,4.8
2017-12-11T13:13:37.062Z,4.8
2017-12-11T13:14:44.246Z,4.8
2017-12-11T13:15:51.163Z,4.8
2017-12-11T13:16:58.076Z,4.8
2017-12-11T13:18:05.266Z,4.9
2017-12-11T13:19:12.453Z,4.8
2017-12-11T13:20:19.643Z,4.9
2017-12-11T13:21:26.555Z,4.9
2017-12-11T13:22:33.463Z,4.9
2017-12-11T13:23:40.384Z,4.8
2017-12-11T13:24:47.302Z,4.7
2017-12-11T13:25:54.489Z,4.6
2017-12-11T13:27:01.683Z,4.5
2017-12-11T13:28:08.866Z,4.5
2017-12-11T13:29:15.785Z,4.4
2017-12-11T13:30:22.972Z,4.4
2017-12-11T13:31:30.160Z,4.4
2017-12-11T13:32:37.358Z,4.4
2017-12-11T13:33:44.547Z,4.4
2017-12-11T13:34:51.463Z,4.4
2017-12-11T13:35:58.654Z,4.3
2017-12-11T13:37:05.845Z,4.3
2017-12-11T13:38:12.765Z,4.2
2017-12-11T13:39:19.951Z,4.2
2017-12-11T13:40:26.598Z,4.2
2017-12-11T13:41:33.525Z,4.2
2017-12-11T13:42:40.730Z,4.3
2017-12-11T13:43:47.656Z,4.3
2017-12-11T13:44:54.565Z,4.3
2017-12-11T13:46:01.204Z,4.3
2017-12-11T13:47:08.123Z,4.3
2017-12-11T13:48:14.786Z,4.3
2017-12-11T13:49:21.973Z,4.4
2017-12-11T13:50:29.163Z,4.3
2017-12-11T13:51:36.075Z,4.3
2017-12-11T13:52:43.264Z,4.2
2017-12-11T13:53:50.455Z,4.1
2017-12-11T13:54:57.373Z,4.1
2017-12-11T13:56:04.286Z,4.1
2017-12-11T13:57:11.471Z,4.1
2017-12-11T13:58:18.383Z,4.1
2017-12-11T13:59:25.575Z,4.1
2017-12-11T14:00:32.762Z,4.1
2017-12-11T14:01:39.953Z,4.1
2017-12-11T14:02:47.139Z,4.1
2017-12-11T14:03:54.057Z,4.1
2017-12-11T14:05:01.284Z,4.1
2017-12-11T14:06:08.198Z,4.2
2017-12-11T14:07:15.392Z,4.1
2017-12-11T14:08:22.305Z,4
2017-12-11T14:09:29.497Z,4
2017-12-11T14:10:36.717Z,4
2017-12-11T14:11:43.904Z,4
2017-12-11T14:12:51.101Z,4
2017-12-11T14:13:58.006Z,4
2017-12-11T14:15:05.194Z,3.8
2017-12-11T14:16:12.380Z,3.7
2017-12-11T14:17:19.567Z,3.7
2017-12-11T14:18:26.477Z,3.7
2017-12-11T14:19:33.678Z,3.7
2017-12-11T14:20:40.887Z,3.7
2017-12-11T14:21:48.149Z,3.7
2017-12-11T14:22:55.057Z,3.8
2017-12-11T14:24:02.242Z,3.8
2017-12-11T14:25:09.163Z,3.8
2017-12-11T14:26:16.348Z,3.9
2017-12-11T14:27:23.538Z,3.9
2017-12-11T14:28:30.725Z,4.1
2017-12-11T14:29:37.916Z,4.2
2017-12-11T14:30:45.108Z,4.2
2017-12-11T14:31:53.104Z,4.2
2017-12-11T14:33:00.294Z,4.2
2017-12-11T14:34:07.210Z,4.2
2017-12-11T14:35:14.401Z,4.2
2017-12-11T14:36:21.037Z,4.2
2017-12-11T14:37:28.228Z,4.2
2017-12-11T14:38:35.143Z,4.2
2017-12-11T14:39:42.329Z,4.3
2017-12-11T14:40:49.517Z,4.2
2017-12-11T14:41:56.707Z,4.2
2017-12-11T14:43:03.617Z,4.3
2017-12-11T14:44:10.808Z,4.4
2017-12-11T14:45:17.442Z,4.5
2017-12-11T14:46:24.630Z,4.5
2017-12-11T14:47:31.558Z,4.5
2017-12-11T14:48:38.733Z,4.5
2017-12-11T14:49:45.642Z,4.5
2017-12-11T14:50:52.833Z,4.5
2017-12-11T14:52:00.023Z,4.5
2017-12-11T14:53:07.212Z,4.6
2017-12-11T14:54:14.401Z,4.6
2017-12-11T14:55:21.311Z,4.6
2017-12-11T14:56:28.499Z,4.6
2017-12-11T14:57:35.705Z,4.6
2017-12-11T14:58:42.895Z,4.6
2017-12-11T14:59:49.810Z,4.6
2017-12-11T15:00:56.720Z,4.6
2017-12-11T15:02:03.905Z,4.6
2017-12-11T15:03:10.538Z,4.6
2017-12-11T15:04:17.466Z,4.6
2017-12-11T15:05:24.653Z,4.6
2017-12-11T15:06:31.560Z,4.6
2017-12-11T15:07:38.756Z,4.5
2017-12-11T15:08:45.671Z,4.5
2017-12-11T15:09:52.583Z,4.5
2017-12-11T15:10:59.716Z,4.5
2017-12-11T15:12:06.625Z,4.5
2017-12-11T15:13:13.533Z,4.5
2017-12-11T15:14:20.463Z,4.4
2017-12-11T15:15:27.658Z,4.5
2017-12-11T15:16:34.630Z,4.4
2017-12-11T15:17:41.824Z,4.4
2017-12-11T15:18:48.739Z,4.4
2017-12-11T15:19:55.437Z,4.5
2017-12-11T15:21:02.372Z,4.5
2017-12-11T15:22:09.289Z,4.4
2017-12-11T15:23:16.476Z,4.4
2017-12-11T15:24:23.665Z,4.4
2017-12-11T15:25:30.853Z,4.4
2017-12-11T15:26:38.073Z,4.4
2017-12-11T15:27:45.260Z,4.5
2017-12-11T15:28:52.448Z,4.4
2017-12-11T15:29:59.635Z,4.4
2017-12-11T15:31:06.833Z,4.5
2017-12-11T15:32:13.751Z,4.5
2017-12-11T15:33:20.936Z,4.5